createdAt,value
2022-09-23T00:01:18.136Z,9.77
2022-09-23T00:06:24.567Z,10.10
2022-09-23T00:11:29.341Z,9.70
2022-09-23T00:16:35.300Z,8.77
2022-09-23T00:21:40.255Z,8.88
2022-09-23T00:26:44.034Z,7.95
2022-09-23T00:31:47.959Z,9.50
2022-09-23T00:36:52.757Z,9.18
2022-09-23T00:41:56.279Z,8.90
2022-09-23T00:46:59.763Z,8.77
2022-09-23T00:52:12.639Z,9.30
2022-09-23T00:57:20.015Z,9.63
2022-09-23T01:02:23.848Z,9.20
2022-09-23T01:07:30.114Z,10.52
2022-09-23T01:12:52.537Z,10.88
2022-09-23T01:18:04.646Z,10.35
2022-09-23T01:23:23.303Z,10.85
2022-09-23T01:28:49.944Z,10.85
2022-09-23T01:34:02.197Z,9.07
2022-09-23T01:39:13.004Z,9.77
2022-09-23T01:44:22.959Z,10.23
2022-09-23T01:49:36.232Z,10.95
2022-09-23T01:54:45.422Z,10.10
2022-09-23T01:59:53.777Z,9.00
2022-09-23T02:05:03.125Z,11.35
2022-09-23T02:10:14.325Z,7.95
2022-09-23T02:15:22.264Z,9.77
2022-09-23T02:20:34.905Z,8.70
2022-09-23T02:25:46.582Z,9.95
2022-09-23T02:30:56.247Z,9.85
2022-09-23T02:36:08.088Z,11.10
2022-09-23T02:41:16.065Z,9.32
2022-09-23T02:46:20.430Z,10.88
2022-09-23T02:51:25.770Z,11.40
2022-09-23T02:56:29.212Z,10.95
2022-09-23T03:01:41.459Z,10.90
2022-09-23T03:06:57.252Z,8.65
2022-09-23T03:12:11.968Z,10.18
2022-09-23T03:17:22.913Z,10.10
2022-09-23T03:22:33.113Z,10.93
2022-09-23T03:27:38.241Z,8.95
2022-09-23T03:32:45.554Z,8.40
2022-09-23T03:37:56.773Z,9.82
2022-09-23T03:48:05.094Z,9.75
2022-09-23T03:53:09.890Z,10.30
2022-09-23T03:58:13.444Z,9.52
2022-09-23T04:03:19.126Z,9.63
2022-09-23T04:08:24.044Z,9.32
2022-09-23T04:13:27.546Z,7.32
2022-09-23T04:18:31.380Z,11.32
2022-09-23T04:23:36.302Z,10.82
2022-09-23T04:28:39.866Z,10.85
2022-09-23T04:33:43.347Z,10.65
2022-09-23T04:38:49.228Z,9.93
2022-09-23T04:43:52.687Z,10.13
2022-09-23T04:48:56.179Z,11.25
2022-09-23T04:54:01.052Z,10.75
2022-09-23T04:59:05.692Z,10.15
2022-09-23T05:04:14.158Z,10.63
2022-09-23T05:09:19.375Z,9.40
2022-09-23T05:14:22.914Z,10.25
2022-09-23T05:19:26.420Z,7.90
2022-09-23T05:24:31.443Z,10.40
2022-09-23T05:29:35.234Z,8.93
2022-09-23T05:34:38.864Z,9.35
2022-09-23T05:39:43.675Z,9.82
2022-09-23T05:44:47.881Z,9.52
2022-09-23T05:50:00.942Z,11.23
2022-09-23T05:55:06.832Z,9.27
2022-09-23T06:00:11.784Z,8.57
2022-09-23T06:05:18.016Z,9.07
2022-09-23T06:10:22.855Z,8.93
2022-09-23T06:15:26.980Z,9.45
2022-09-23T06:20:31.053Z,9.48
2022-09-23T06:25:38.351Z,9.65
2022-09-23T06:30:42.598Z,9.18
2022-09-23T06:35:56.417Z,8.98
2022-09-23T06:41:05.492Z,9.75
2022-09-23T06:46:10.444Z,10.07
2022-09-23T06:51:19.332Z,10.02
2022-09-23T06:56:24.779Z,9.43
2022-09-23T07:01:28.586Z,10.63
2022-09-23T07:06:32.464Z,9.35
2022-09-23T07:11:37.693Z,9.07
2022-09-23T07:16:41.820Z,9.50
2022-09-23T07:21:45.563Z,10.80
2022-09-23T07:26:51.912Z,9.23
2022-09-23T07:32:05.844Z,9.90
2022-09-23T07:37:12.821Z,10.15
2022-09-23T07:42:19.468Z,10.27
2022-09-23T07:47:23.600Z,8.90
2022-09-23T07:52:27.418Z,9.88
2022-09-23T07:57:32.357Z,10.27
2022-09-23T08:02:36.095Z,9.57
2022-09-23T08:07:39.668Z,9.70
2022-09-23T08:12:44.680Z,8.05
2022-09-23T08:17:48.860Z,8.48
2022-09-23T08:22:53.667Z,8.35
2022-09-23T08:27:59.803Z,8.68
2022-09-23T08:33:03.572Z,9.85
2022-09-23T08:38:07.457Z,8.60
2022-09-23T08:43:23.178Z,10.00
2022-09-23T08:48:30.924Z,7.70
2022-09-23T08:53:36.563Z,8.95
2022-09-23T08:58:50.886Z,8.85
2022-09-23T09:03:56.424Z,8.50
2022-09-23T09:09:03.116Z,8.82
2022-09-23T09:14:20.613Z,8.63
2022-09-23T09:19:44.097Z,10.45
2022-09-23T09:24:50.477Z,8.52
2022-09-23T09:29:56.506Z,8.68
2022-09-23T09:35:06.479Z,8.65
2022-09-23T09:40:13.351Z,7.47
2022-09-23T09:45:28.964Z,7.95
2022-09-23T09:50:47.111Z,7.90
2022-09-23T09:56:05.330Z,7.18
2022-09-23T10:01:19.395Z,8.18
2022-09-23T10:06:26.099Z,6.78
2022-09-23T10:11:30.790Z,7.38
2022-09-23T10:16:36.034Z,7.88
2022-09-23T10:21:42.372Z,8.27
2022-09-23T10:26:55.856Z,7.00
2022-09-23T10:37:41.492Z,6.65
2022-09-23T10:43:14.853Z,7.72
2022-09-23T10:48:28.996Z,7.43
2022-09-23T10:53:44.110Z,6.47
2022-09-23T10:59:18.068Z,7.50
2022-09-23T11:04:54.881Z,9.95
2022-09-23T11:10:41.879Z,6.70
2022-09-23T11:15:56.031Z,7.55
2022-09-23T11:21:20.956Z,7.70
2022-09-23T11:26:37.621Z,7.75
2022-09-23T11:31:57.371Z,6.72
2022-09-23T11:37:07.665Z,6.50
2022-09-23T11:42:20.477Z,6.57
2022-09-23T11:47:28.610Z,6.65
2022-09-23T11:52:37.207Z,6.95
2022-09-23T11:57:49.896Z,7.72
2022-09-23T12:03:06.735Z,7.97
2022-09-23T12:08:19.056Z,7.22
2022-09-23T12:13:32.003Z,8.45
2022-09-23T12:18:47.910Z,7.93
2022-09-23T12:24:08.699Z,8.30
2022-09-23T12:29:15.897Z,8.75
2022-09-23T12:34:26.314Z,8.93
2022-09-23T12:39:33.588Z,9.23
2022-09-23T12:44:40.801Z,9.70
2022-09-23T12:49:44.741Z,8.35
2022-09-23T12:54:50.115Z,7.40
2022-09-23T13:00:16.324Z,7.75
2022-09-23T13:05:40.322Z,7.95
2022-09-23T13:10:48.319Z,8.05
2022-09-23T13:15:55.131Z,7.82
2022-09-23T13:20:58.831Z,7.78
2022-09-23T13:26:11.343Z,6.82
2022-09-23T13:31:17.966Z,6.80
2022-09-23T13:36:22.226Z,6.10
2022-09-23T13:41:28.794Z,6.50
2022-09-23T13:46:42.955Z,5.72
2022-09-23T13:51:46.638Z,5.75
2022-09-23T13:56:50.774Z,6.38
2022-09-23T14:02:12.428Z,6.00
2022-09-23T14:07:19.199Z,5.35
2022-09-23T14:12:23.393Z,5.40
2022-09-23T14:17:28.437Z,6.32
2022-09-23T14:22:32.365Z,6.10
2022-09-23T14:27:36.855Z,5.05
2022-09-23T14:32:42.252Z,4.28
2022-09-23T14:38:05.943Z,5.13
2022-09-23T14:43:18.024Z,3.88
2022-09-23T14:48:26.180Z,3.50
2022-09-23T14:53:34.549Z,3.80
2022-09-23T14:58:47.042Z,3.75
2022-09-23T15:03:57.723Z,4.47
2022-09-23T15:09:01.392Z,3.95
2022-09-23T15:14:26.407Z,3.97
2022-09-23T15:19:31.819Z,3.65
2022-09-23T15:24:38.491Z,5.50
2022-09-23T15:29:42.013Z,4.65
2022-09-23T15:34:50.035Z,6.35
2022-09-23T15:39:53.646Z,4.70
2022-09-23T15:44:58.450Z,4.82
2022-09-23T15:50:03.282Z,3.92
2022-09-23T15:55:17.923Z,4.30
2022-09-23T16:00:21.830Z,5.88
2022-09-23T16:05:33.184Z,4.72
2022-09-23T16:10:37.221Z,5.25
2022-09-23T16:15:41.656Z,4.95
2022-09-23T16:20:47.919Z,4.55
2022-09-23T16:25:51.444Z,6.05
2022-09-23T16:30:54.962Z,5.60
2022-09-23T16:36:02.000Z,6.28
2022-09-23T16:41:07.018Z,5.88
2022-09-23T16:46:12.635Z,7.50
2022-09-23T16:51:20.556Z,6.85
2022-09-23T16:56:28.901Z,7.43
2022-09-23T17:01:50.754Z,8.13
2022-09-23T17:06:56.622Z,7.97
2022-09-23T17:12:10.684Z,7.85
2022-09-23T17:17:14.310Z,8.35
2022-09-23T17:22:19.278Z,9.32
2022-09-23T17:27:24.984Z,9.95
2022-09-23T17:32:28.789Z,8.52
2022-09-23T17:37:34.029Z,10.35
2022-09-23T17:42:41.139Z,13.32
2022-09-23T17:47:54.905Z,11.15
2022-09-23T17:53:01.347Z,11.50
2022-09-23T17:58:04.885Z,30.13
2022-09-23T18:03:08.680Z,57.72
2022-09-23T18:08:13.777Z,113.53
2022-09-23T18:13:17.396Z,69.93
2022-09-23T18:18:20.997Z,54.38
2022-09-23T18:23:26.233Z,36.80
2022-09-23T18:28:34.039Z,25.40
2022-09-23T18:33:38.624Z,19.60
2022-09-23T18:38:43.918Z,17.48
2022-09-23T18:43:48.836Z,15.75
2022-09-23T18:49:10.759Z,17.08
2022-09-23T18:54:16.216Z,15.30
2022-09-23T18:59:23.957Z,15.23
2022-09-23T19:04:29.160Z,16.83
2022-09-23T19:09:34.088Z,16.33
2022-09-23T19:14:37.645Z,17.67
2022-09-23T19:19:41.197Z,18.80
2022-09-23T19:24:45.952Z,17.45
2022-09-23T19:29:50.368Z,17.98
2022-09-23T19:34:54.600Z,19.52
2022-09-23T19:39:59.544Z,19.98
2022-09-23T19:45:03.160Z,18.98
2022-09-23T19:50:07.886Z,20.50
2022-09-23T19:55:13.078Z,20.83
2022-09-23T20:00:17.057Z,21.13
2022-09-23T20:05:20.957Z,22.52
2022-09-23T20:10:26.270Z,22.02
2022-09-23T20:15:30.202Z,21.13
2022-09-23T20:20:33.965Z,25.15
2022-09-23T20:26:05.252Z,22.98
2022-09-23T20:36:13.778Z,22.90
2022-09-23T20:41:18.718Z,20.10
2022-09-23T20:46:23.967Z,23.27
2022-09-23T20:51:28.039Z,23.75
2022-09-23T20:56:33.003Z,22.00
2022-09-23T21:01:37.121Z,22.38
2022-09-23T21:06:40.772Z,22.05
2022-09-23T21:11:46.688Z,23.75
2022-09-23T21:16:50.797Z,21.60
2022-09-23T21:21:54.296Z,23.08
2022-09-23T21:26:59.132Z,22.77
2022-09-23T21:32:03.770Z,22.23
2022-09-23T21:37:08.784Z,26.08
2022-09-23T21:42:13.691Z,23.73
2022-09-23T21:47:17.338Z,23.45
2022-09-23T21:52:20.817Z,23.55
2022-09-23T21:57:26.569Z,23.45
2022-09-23T22:02:30.027Z,21.60
2022-09-23T22:07:37.485Z,24.08
2022-09-23T22:12:42.402Z,28.23
2022-09-23T22:17:46.083Z,24.73
2022-09-23T22:22:51.276Z,25.92
2022-09-23T22:28:14.029Z,24.33
2022-09-23T22:33:17.576Z,25.05
2022-09-23T22:38:21.102Z,24.55
2022-09-23T22:43:25.996Z,24.55
2022-09-23T22:48:29.453Z,25.13
2022-09-23T22:53:33.023Z,25.92
2022-09-23T22:58:37.881Z,27.13
2022-09-23T23:03:41.799Z,26.80
2022-09-23T23:08:45.318Z,26.33
2022-09-23T23:13:50.196Z,27.33
2022-09-23T23:18:53.863Z,27.92
2022-09-23T23:23:57.343Z,26.73
2022-09-23T23:29:02.573Z,26.45
2022-09-23T23:34:08.423Z,26.58
2022-09-23T23:39:13.762Z,23.48
2022-09-23T23:44:18.744Z,24.67
2022-09-23T23:49:22.613Z,26.17
2022-09-23T23:54:26.133Z,23.80
2022-09-23T23:59:34.313Z,25.05
